Portada
METAR-TAF:

METAR-TAF

Aeropuertos :

Dar es Salaam, Tanzania

Aeropuerto Internacional Julius Nyerere

latitud: 06-52S, longitud: 039-12E, altitud: 55 m

Observación

El informe se hizo hace 1 hora y 15 minutos, a las 12:00 UTC
Viento 12 kt del noreste
Temperatura 31°C
Humedad 66%
Presión 1010 hPa
Visibilidad 10 km o más
Nubes dispersas a una altura de 2300 ft

METAR: HTDA 171200Z 04012KT 9999 SCT023 31/24 Q1010 NOSIG

Hora: 16:15 (13:15 UTC)

Pronóstico

El informe se hizo hace 8 horas y 15 minutos, a las 05:00 UTC
Pronóstico válido del 17 a las 06 UTC al 18 a las 12 UTC
Viento 10 kt del sureste
Visibilidad 10 km o más
Nubes dispersas a una altura de 1900 ft

TAF: HTDA 170500Z 1706/1812 14010KT 9999 SCT019

Observaciones y pronósticos meteorológicos de más de 4000 aeropuertos (mensajes METAR y TAF).

Los puntos amarillos y rojos representan las estaciones disponibles.

Ponga el ratón en el punto deseado para ver el nombre de la estación.

Haga clic para ver las observaciones y los pronósticos meteorológicos.

Para cambiar el mapa : haga clic en los botones verdes con una cruz de color negro para hacer un zoom, en el botón verde con un guión para alejar o en las flechas verdes para mapas adyacentes.


METAR-TAF: